sensor_id;sensor_type;location;lat;lon;timestamp;P1;durP1;ratioP1;P2;durP2;ratioP2
11522;SDS011;70090;43.208;27.904;2024-02-26T00:00:40;21.57;;;17.13;;
11522;SDS011;70090;43.208;27.904;2024-02-26T00:03:08;21.53;;;17.40;;
11522;SDS011;70090;43.208;27.904;2024-02-26T00:05:35;20.73;;;16.73;;
11522;SDS011;70090;43.208;27.904;2024-02-26T00:08:04;19.10;;;17.07;;
11522;SDS011;70090;43.208;27.904;2024-02-26T00:10:31;23.37;;;16.50;;
11522;SDS011;70090;43.208;27.904;2024-02-26T00:12:58;18.33;;;16.20;;
11522;SDS011;70090;43.208;27.904;2024-02-26T00:15:25;18.40;;;16.00;;
11522;SDS011;70090;43.208;27.904;2024-02-26T00:17:55;21.23;;;15.87;;
11522;SDS011;70090;43.208;27.904;2024-02-26T00:20:23;19.37;;;15.63;;
11522;SDS011;70090;43.208;27.904;2024-02-26T00:22:51;18.17;;;14.57;;
11522;SDS011;70090;43.208;27.904;2024-02-26T00:25:18;17.60;;;14.80;;
11522;SDS011;70090;43.208;27.904;2024-02-26T00:27:45;16.57;;;14.60;;
11522;SDS011;70090;43.208;27.904;2024-02-26T00:30:12;16.20;;;14.50;;
11522;SDS011;70090;43.208;27.904;2024-02-26T00:32:39;17.63;;;14.60;;
11522;SDS011;70090;43.208;27.904;2024-02-26T00:35:06;16.83;;;14.33;;
11522;SDS011;70090;43.208;27.904;2024-02-26T00:37:36;16.27;;;13.77;;
11522;SDS011;70090;43.208;27.904;2024-02-26T00:40:03;16.13;;;13.70;;
11522;SDS011;70090;43.208;27.904;2024-02-26T00:42:31;16.73;;;14.00;;
11522;SDS011;70090;43.208;27.904;2024-02-26T00:44:58;17.10;;;14.13;;
11522;SDS011;70090;43.208;27.904;2024-02-26T00:47:25;16.63;;;14.57;;
11522;SDS011;70090;43.208;27.904;2024-02-26T00:49:52;18.93;;;14.17;;
11522;SDS011;70090;43.208;27.904;2024-02-26T00:52:19;20.27;;;13.80;;
11522;SDS011;70090;43.208;27.904;2024-02-26T00:54:48;16.87;;;14.17;;
11522;SDS011;70090;43.208;27.904;2024-02-26T00:57:15;16.77;;;14.07;;
11522;SDS011;70090;43.208;27.904;2024-02-26T00:59:42;17.07;;;13.97;;
11522;SDS011;70090;43.208;27.904;2024-02-26T01:02:09;18.10;;;14.40;;
11522;SDS011;70090;43.208;27.904;2024-02-26T01:04:36;18.70;;;14.23;;
11522;SDS011;70090;43.208;27.904;2024-02-26T01:07:03;19.50;;;15.10;;
11522;SDS011;70090;43.208;27.904;2024-02-26T01:09:30;18.70;;;14.33;;
11522;SDS011;70090;43.208;27.904;2024-02-26T01:11:59;18.00;;;14.33;;
11522;SDS011;70090;43.208;27.904;2024-02-26T01:14:27;18.03;;;14.17;;
11522;SDS011;70090;43.208;27.904;2024-02-26T01:16:54;18.53;;;15.03;;
11522;SDS011;70090;43.208;27.904;2024-02-26T01:19:21;19.60;;;14.90;;
11522;SDS011;70090;43.208;27.904;2024-02-26T01:21:49;19.07;;;14.10;;
11522;SDS011;70090;43.208;27.904;2024-02-26T01:24:16;16.90;;;14.63;;
11522;SDS011;70090;43.208;27.904;2024-02-26T01:26:43;18.13;;;14.47;;
11522;SDS011;70090;43.208;27.904;2024-02-26T01:29:12;16.50;;;14.00;;
11522;SDS011;70090;43.208;27.904;2024-02-26T01:31:39;17.80;;;14.97;;
11522;SDS011;70090;43.208;27.904;2024-02-26T01:34:06;18.83;;;14.73;;
11522;SDS011;70090;43.208;27.904;2024-02-26T01:36:33;15.73;;;14.00;;
11522;SDS011;70090;43.208;27.904;2024-02-26T01:39:01;17.33;;;14.60;;
11522;SDS011;70090;43.208;27.904;2024-02-26T01:41:28;15.60;;;13.90;;
11522;SDS011;70090;43.208;27.904;2024-02-26T01:43:55;17.87;;;14.40;;
11522;SDS011;70090;43.208;27.904;2024-02-26T01:46:24;17.07;;;14.43;;
11522;SDS011;70090;43.208;27.904;2024-02-26T01:48:51;17.07;;;14.10;;
11522;SDS011;70090;43.208;27.904;2024-02-26T01:51:18;18.63;;;14.70;;
11522;SDS011;70090;43.208;27.904;2024-02-26T01:53:46;17.83;;;14.20;;
11522;SDS011;70090;43.208;27.904;2024-02-26T01:56:13;18.23;;;14.57;;
11522;SDS011;70090;43.208;27.904;2024-02-26T01:58:41;18.80;;;14.50;;
11522;SDS011;70090;43.208;27.904;2024-02-26T02:01:09;19.90;;;14.93;;
11522;SDS011;70090;43.208;27.904;2024-02-26T02:03:38;19.23;;;14.63;;
11522;SDS011;70090;43.208;27.904;2024-02-26T02:06:06;16.03;;;14.00;;
11522;SDS011;70090;43.208;27.904;2024-02-26T02:08:34;19.20;;;15.17;;
11522;SDS011;70090;43.208;27.904;2024-02-26T02:11:02;17.93;;;14.37;;
11522;SDS011;70090;43.208;27.904;2024-02-26T02:13:29;18.23;;;14.13;;
11522;SDS011;70090;43.208;27.904;2024-02-26T02:15:56;16.17;;;13.23;;
11522;SDS011;70090;43.208;27.904;2024-02-26T02:18:23;16.93;;;13.80;;
11522;SDS011;70090;43.208;27.904;2024-02-26T02:20:52;18.03;;;13.80;;
11522;SDS011;70090;43.208;27.904;2024-02-26T02:23:21;16.43;;;13.50;;
11522;SDS011;70090;43.208;27.904;2024-02-26T02:25:48;17.03;;;13.67;;
11522;SDS011;70090;43.208;27.904;2024-02-26T02:28:15;16.20;;;12.30;;
11522;SDS011;70090;43.208;27.904;2024-02-26T02:30:43;16.33;;;12.63;;
11522;SDS011;70090;43.208;27.904;2024-02-26T02:33:10;17.00;;;12.43;;
11522;SDS011;70090;43.208;27.904;2024-02-26T02:35:38;13.77;;;11.70;;
11522;SDS011;70090;43.208;27.904;2024-02-26T02:38:06;17.17;;;12.00;;
11522;SDS011;70090;43.208;27.904;2024-02-26T02:40:33;17.57;;;12.33;;
11522;SDS011;70090;43.208;27.904;2024-02-26T02:43:00;16.93;;;11.77;;
11522;SDS011;70090;43.208;27.904;2024-02-26T02:45:27;18.27;;;12.00;;
11522;SDS011;70090;43.208;27.904;2024-02-26T02:47:54;16.57;;;12.03;;
11522;SDS011;70090;43.208;27.904;2024-02-26T02:50:21;15.43;;;12.03;;
11522;SDS011;70090;43.208;27.904;2024-02-26T02:52:48;17.83;;;12.13;;
11522;SDS011;70090;43.208;27.904;2024-02-26T02:55:16;17.70;;;11.90;;
11522;SDS011;70090;43.208;27.904;2024-02-26T02:57:44;14.27;;;11.60;;
11522;SDS011;70090;43.208;27.904;2024-02-26T03:00:12;17.20;;;11.60;;
11522;SDS011;70090;43.208;27.904;2024-02-26T03:02:39;18.87;;;11.70;;
11522;SDS011;70090;43.208;27.904;2024-02-26T03:05:06;14.97;;;11.13;;
11522;SDS011;70090;43.208;27.904;2024-02-26T03:07:34;17.73;;;12.40;;
11522;SDS011;70090;43.208;27.904;2024-02-26T03:10:01;15.33;;;11.37;;
11522;SDS011;70090;43.208;27.904;2024-02-26T03:12:29;14.67;;;11.67;;
11522;SDS011;70090;43.208;27.904;2024-02-26T03:14:57;14.23;;;11.40;;
11522;SDS011;70090;43.208;27.904;2024-02-26T03:17:25;16.70;;;10.93;;
11522;SDS011;70090;43.208;27.904;2024-02-26T03:19:52;14.63;;;10.77;;
11522;SDS011;70090;43.208;27.904;2024-02-26T03:22:20;16.07;;;10.57;;
11522;SDS011;70090;43.208;27.904;2024-02-26T03:24:47;16.37;;;11.13;;
11522;SDS011;70090;43.208;27.904;2024-02-26T03:27:14;16.97;;;11.40;;
11522;SDS011;70090;43.208;27.904;2024-02-26T03:29:43;17.00;;;11.33;;
11522;SDS011;70090;43.208;27.904;2024-02-26T03:32:10;16.10;;;11.53;;
11522;SDS011;70090;43.208;27.904;2024-02-26T03:34:37;14.90;;;11.93;;
11522;SDS011;70090;43.208;27.904;2024-02-26T03:37:05;16.97;;;11.90;;
11522;SDS011;70090;43.208;27.904;2024-02-26T03:39:34;16.50;;;11.20;;
11522;SDS011;70090;43.208;27.904;2024-02-26T03:42:01;19.97;;;11.03;;
11522;SDS011;70090;43.208;27.904;2024-02-26T03:44:28;17.83;;;11.17;;
11522;SDS011;70090;43.208;27.904;2024-02-26T03:46:57;15.33;;;10.80;;
11522;SDS011;70090;43.208;27.904;2024-02-26T03:49:24;16.23;;;10.90;;
11522;SDS011;70090;43.208;27.904;2024-02-26T03:51:51;19.87;;;10.37;;
11522;SDS011;70090;43.208;27.904;2024-02-26T03:54:18;16.50;;;10.30;;
11522;SDS011;70090;43.208;27.904;2024-02-26T03:56:45;16.50;;;10.63;;
11522;SDS011;70090;43.208;27.904;2024-02-26T03:59:12;15.60;;;9.97;;
11522;SDS011;70090;43.208;27.904;2024-02-26T04:01:39;15.20;;;10.43;;
11522;SDS011;70090;43.208;27.904;2024-02-26T04:04:12;14.10;;;9.57;;
11522;SDS011;70090;43.208;27.904;2024-02-26T04:06:39;14.20;;;9.73;;
11522;SDS011;70090;43.208;27.904;2024-02-26T04:09:06;16.37;;;10.20;;
11522;SDS011;70090;43.208;27.904;2024-02-26T04:11:35;13.77;;;9.43;;
11522;SDS011;70090;43.208;27.904;2024-02-26T04:14:02;14.07;;;9.30;;
11522;SDS011;70090;43.208;27.904;2024-02-26T04:16:31;17.27;;;10.00;;
11522;SDS011;70090;43.208;27.904;2024-02-26T04:18:58;17.80;;;9.33;;
11522;SDS011;70090;43.208;27.904;2024-02-26T04:21:26;18.40;;;9.57;;
11522;SDS011;70090;43.208;27.904;2024-02-26T04:23:53;15.60;;;9.33;;
11522;SDS011;70090;43.208;27.904;2024-02-26T04:26:21;16.37;;;9.70;;
11522;SDS011;70090;43.208;27.904;2024-02-26T04:28:48;15.50;;;9.57;;
11522;SDS011;70090;43.208;27.904;2024-02-26T04:31:15;18.10;;;10.27;;
11522;SDS011;70090;43.208;27.904;2024-02-26T04:33:42;18.43;;;11.07;;
11522;SDS011;70090;43.208;27.904;2024-02-26T04:36:12;15.80;;;9.90;;
11522;SDS011;70090;43.208;27.904;2024-02-26T04:38:42;15.03;;;10.03;;
11522;SDS011;70090;43.208;27.904;2024-02-26T04:41:09;20.27;;;11.03;;
11522;SDS011;70090;43.208;27.904;2024-02-26T04:43:36;17.40;;;11.30;;
11522;SDS011;70090;43.208;27.904;2024-02-26T04:46:06;19.73;;;12.03;;
11522;SDS011;70090;43.208;27.904;2024-02-26T04:48:35;21.83;;;12.23;;
11522;SDS011;70090;43.208;27.904;2024-02-26T04:51:03;16.50;;;10.27;;
11522;SDS011;70090;43.208;27.904;2024-02-26T04:53:30;17.73;;;11.40;;
11522;SDS011;70090;43.208;27.904;2024-02-26T04:55:59;18.20;;;10.50;;
11522;SDS011;70090;43.208;27.904;2024-02-26T04:58:26;19.53;;;10.43;;
11522;SDS011;70090;43.208;27.904;2024-02-26T05:00:53;17.70;;;10.27;;
11522;SDS011;70090;43.208;27.904;2024-02-26T05:03:20;16.97;;;9.90;;
11522;SDS011;70090;43.208;27.904;2024-02-26T05:05:48;17.57;;;9.93;;
11522;SDS011;70090;43.208;27.904;2024-02-26T05:08:15;15.03;;;8.70;;
11522;SDS011;70090;43.208;27.904;2024-02-26T05:10:42;17.57;;;9.20;;
11522;SDS011;70090;43.208;27.904;2024-02-26T05:13:10;14.50;;;8.60;;
11522;SDS011;70090;43.208;27.904;2024-02-26T05:15:40;18.27;;;9.27;;
11522;SDS011;70090;43.208;27.904;2024-02-26T05:18:08;15.07;;;8.53;;
11522;SDS011;70090;43.208;27.904;2024-02-26T05:20:35;16.37;;;9.00;;
11522;SDS011;70090;43.208;27.904;2024-02-26T05:23:03;18.93;;;9.40;;
11522;SDS011;70090;43.208;27.904;2024-02-26T05:25:30;16.93;;;9.27;;
11522;SDS011;70090;43.208;27.904;2024-02-26T05:27:57;19.83;;;9.90;;
11522;SDS011;70090;43.208;27.904;2024-02-26T05:30:25;15.80;;;8.77;;
11522;SDS011;70090;43.208;27.904;2024-02-26T05:32:53;17.73;;;9.90;;
11522;SDS011;70090;43.208;27.904;2024-02-26T05:35:20;16.67;;;9.47;;
11522;SDS011;70090;43.208;27.904;2024-02-26T05:37:47;19.80;;;9.30;;
11522;SDS011;70090;43.208;27.904;2024-02-26T05:40:14;18.37;;;8.90;;
11522;SDS011;70090;43.208;27.904;2024-02-26T05:42:41;21.53;;;8.97;;
11522;SDS011;70090;43.208;27.904;2024-02-26T05:45:10;17.17;;;9.33;;
11522;SDS011;70090;43.208;27.904;2024-02-26T05:47:38;16.00;;;9.00;;
11522;SDS011;70090;43.208;27.904;2024-02-26T05:50:08;21.97;;;9.00;;
11522;SDS011;70090;43.208;27.904;2024-02-26T05:52:36;18.43;;;9.17;;
11522;SDS011;70090;43.208;27.904;2024-02-26T05:55:03;17.83;;;10.10;;
11522;SDS011;70090;43.208;27.904;2024-02-26T05:57:31;23.13;;;10.70;;
11522;SDS011;70090;43.208;27.904;2024-02-26T05:59:58;23.00;;;9.93;;
11522;SDS011;70090;43.208;27.904;2024-02-26T06:02:29;22.10;;;10.33;;
11522;SDS011;70090;43.208;27.904;2024-02-26T06:04:57;20.57;;;10.53;;
11522;SDS011;70090;43.208;27.904;2024-02-26T06:07:25;18.67;;;10.47;;
11522;SDS011;70090;43.208;27.904;2024-02-26T06:09:52;23.70;;;10.70;;
11522;SDS011;70090;43.208;27.904;2024-02-26T06:12:20;24.33;;;13.87;;
11522;SDS011;70090;43.208;27.904;2024-02-26T06:14:48;21.23;;;11.87;;
11522;SDS011;70090;43.208;27.904;2024-02-26T06:17:15;18.60;;;11.13;;
11522;SDS011;70090;43.208;27.904;2024-02-26T06:19:42;18.53;;;8.87;;
11522;SDS011;70090;43.208;27.904;2024-02-26T06:22:11;14.30;;;8.30;;
11522;SDS011;70090;43.208;27.904;2024-02-26T06:24:38;15.97;;;7.83;;
11522;SDS011;70090;43.208;27.904;2024-02-26T06:27:05;15.77;;;8.00;;
11522;SDS011;70090;43.208;27.904;2024-02-26T06:29:32;15.03;;;7.90;;
11522;SDS011;70090;43.208;27.904;2024-02-26T06:31:59;16.77;;;8.20;;
11522;SDS011;70090;43.208;27.904;2024-02-26T06:34:26;19.40;;;8.90;;
11522;SDS011;70090;43.208;27.904;2024-02-26T06:36:53;20.37;;;9.00;;
11522;SDS011;70090;43.208;27.904;2024-02-26T06:39:22;15.37;;;8.63;;
11522;SDS011;70090;43.208;27.904;2024-02-26T06:41:49;17.07;;;8.87;;
11522;SDS011;70090;43.208;27.904;2024-02-26T06:44:19;18.63;;;8.67;;
11522;SDS011;70090;43.208;27.904;2024-02-26T06:46:46;17.77;;;9.03;;
11522;SDS011;70090;43.208;27.904;2024-02-26T06:49:13;17.03;;;8.10;;
11522;SDS011;70090;43.208;27.904;2024-02-26T06:51:40;19.70;;;7.67;;
11522;SDS011;70090;43.208;27.904;2024-02-26T06:54:07;15.97;;;7.60;;
11522;SDS011;70090;43.208;27.904;2024-02-26T06:56:36;18.57;;;8.40;;
11522;SDS011;70090;43.208;27.904;2024-02-26T06:59:03;21.87;;;8.50;;
11522;SDS011;70090;43.208;27.904;2024-02-26T07:01:30;16.67;;;8.20;;
11522;SDS011;70090;43.208;27.904;2024-02-26T07:03:57;17.77;;;7.67;;
11522;SDS011;70090;43.208;27.904;2024-02-26T07:06:24;16.20;;;7.97;;
11522;SDS011;70090;43.208;27.904;2024-02-26T07:08:51;16.50;;;7.53;;
11522;SDS011;70090;43.208;27.904;2024-02-26T07:11:18;18.10;;;8.07;;
11522;SDS011;70090;43.208;27.904;2024-02-26T07:13:46;17.53;;;7.60;;
11522;SDS011;70090;43.208;27.904;2024-02-26T07:16:14;12.67;;;8.00;;
11522;SDS011;70090;43.208;27.904;2024-02-26T07:18:42;20.83;;;8.00;;
11522;SDS011;70090;43.208;27.904;2024-02-26T07:21:09;19.77;;;8.43;;
11522;SDS011;70090;43.208;27.904;2024-02-26T07:23:38;16.63;;;8.17;;
11522;SDS011;70090;43.208;27.904;2024-02-26T07:26:05;17.90;;;8.33;;
11522;SDS011;70090;43.208;27.904;2024-02-26T07:28:33;15.30;;;7.60;;
11522;SDS011;70090;43.208;27.904;2024-02-26T07:31:02;16.07;;;8.20;;
11522;SDS011;70090;43.208;27.904;2024-02-26T07:33:29;15.37;;;8.03;;
11522;SDS011;70090;43.208;27.904;2024-02-26T07:35:56;14.67;;;7.50;;
11522;SDS011;70090;43.208;27.904;2024-02-26T07:38:23;14.13;;;7.07;;
11522;SDS011;70090;43.208;27.904;2024-02-26T07:40:50;15.53;;;7.30;;
11522;SDS011;70090;43.208;27.904;2024-02-26T07:43:17;13.07;;;6.80;;
11522;SDS011;70090;43.208;27.904;2024-02-26T07:45:44;16.27;;;7.67;;
11522;SDS011;70090;43.208;27.904;2024-02-26T07:48:13;18.97;;;7.47;;
11522;SDS011;70090;43.208;27.904;2024-02-26T07:50:40;19.77;;;8.03;;
11522;SDS011;70090;43.208;27.904;2024-02-26T07:53:07;14.50;;;7.33;;
11522;SDS011;70090;43.208;27.904;2024-02-26T07:55:34;17.80;;;7.37;;
11522;SDS011;70090;43.208;27.904;2024-02-26T07:58:01;15.90;;;6.73;;
11522;SDS011;70090;43.208;27.904;2024-02-26T08:00:28;17.17;;;7.93;;
11522;SDS011;70090;43.208;27.904;2024-02-26T08:02:55;13.40;;;6.57;;
11522;SDS011;70090;43.208;27.904;2024-02-26T08:05:23;16.70;;;6.70;;
11522;SDS011;70090;43.208;27.904;2024-02-26T08:07:51;15.87;;;7.00;;
11522;SDS011;70090;43.208;27.904;2024-02-26T08:10:18;13.43;;;7.30;;
11522;SDS011;70090;43.208;27.904;2024-02-26T08:12:45;20.27;;;7.80;;
11522;SDS011;70090;43.208;27.904;2024-02-26T08:15:12;15.30;;;7.43;;
11522;SDS011;70090;43.208;27.904;2024-02-26T08:17:39;17.70;;;7.40;;
11522;SDS011;70090;43.208;27.904;2024-02-26T08:20:06;16.90;;;7.77;;
11522;SDS011;70090;43.208;27.904;2024-02-26T08:22:36;15.37;;;8.17;;
11522;SDS011;70090;43.208;27.904;2024-02-26T08:25:04;13.70;;;6.83;;
11522;SDS011;70090;43.208;27.904;2024-02-26T08:27:34;14.00;;;7.00;;
11522;SDS011;70090;43.208;27.904;2024-02-26T08:30:01;16.20;;;7.83;;
11522;SDS011;70090;43.208;27.904;2024-02-26T08:32:28;13.50;;;6.83;;
11522;SDS011;70090;43.208;27.904;2024-02-26T08:34:55;17.87;;;7.43;;
11522;SDS011;70090;43.208;27.904;2024-02-26T08:37:22;14.33;;;7.47;;
11522;SDS011;70090;43.208;27.904;2024-02-26T08:39:50;15.73;;;7.37;;
11522;SDS011;70090;43.208;27.904;2024-02-26T08:42:17;14.53;;;7.57;;
11522;SDS011;70090;43.208;27.904;2024-02-26T08:44:44;15.87;;;7.70;;
11522;SDS011;70090;43.208;27.904;2024-02-26T08:47:11;15.40;;;7.70;;
11522;SDS011;70090;43.208;27.904;2024-02-26T08:49:42;18.97;;;7.33;;
11522;SDS011;70090;43.208;27.904;2024-02-26T08:52:09;11.70;;;6.70;;
11522;SDS011;70090;43.208;27.904;2024-02-26T08:54:36;17.00;;;7.17;;
11522;SDS011;70090;43.208;27.904;2024-02-26T08:57:05;15.97;;;7.00;;
11522;SDS011;70090;43.208;27.904;2024-02-26T08:59:32;14.13;;;7.10;;
11522;SDS011;70090;43.208;27.904;2024-02-26T09:01:59;17.20;;;7.90;;
11522;SDS011;70090;43.208;27.904;2024-02-26T09:04:26;20.83;;;8.10;;
11522;SDS011;70090;43.208;27.904;2024-02-26T09:06:53;16.27;;;7.70;;
11522;SDS011;70090;43.208;27.904;2024-02-26T09:09:20;17.50;;;6.93;;
11522;SDS011;70090;43.208;27.904;2024-02-26T09:11:50;14.00;;;6.03;;
11522;SDS011;70090;43.208;27.904;2024-02-26T09:14:18;14.30;;;7.07;;
11522;SDS011;70090;43.208;27.904;2024-02-26T09:16:46;13.53;;;7.00;;
11522;SDS011;70090;43.208;27.904;2024-02-26T09:19:13;12.93;;;5.90;;
11522;SDS011;70090;43.208;27.904;2024-02-26T09:21:42;12.03;;;6.60;;
11522;SDS011;70090;43.208;27.904;2024-02-26T09:24:09;14.80;;;6.90;;
11522;SDS011;70090;43.208;27.904;2024-02-26T09:26:36;17.70;;;7.33;;
11522;SDS011;70090;43.208;27.904;2024-02-26T09:29:04;14.97;;;6.37;;
11522;SDS011;70090;43.208;27.904;2024-02-26T09:31:32;18.47;;;6.73;;
11522;SDS011;70090;43.208;27.904;2024-02-26T09:34:00;15.87;;;6.50;;
11522;SDS011;70090;43.208;27.904;2024-02-26T09:36:27;13.90;;;6.57;;
11522;SDS011;70090;43.208;27.904;2024-02-26T09:38:54;15.00;;;7.20;;
11522;SDS011;70090;43.208;27.904;2024-02-26T09:41:21;15.10;;;6.77;;
11522;SDS011;70090;43.208;27.904;2024-02-26T09:43:48;15.30;;;6.90;;
11522;SDS011;70090;43.208;27.904;2024-02-26T09:46:17;13.80;;;6.67;;
11522;SDS011;70090;43.208;27.904;2024-02-26T09:48:46;17.97;;;7.27;;
11522;SDS011;70090;43.208;27.904;2024-02-26T09:51:14;15.37;;;6.77;;
11522;SDS011;70090;43.208;27.904;2024-02-26T09:53:43;18.57;;;7.80;;
11522;SDS011;70090;43.208;27.904;2024-02-26T09:56:11;13.40;;;6.90;;
11522;SDS011;70090;43.208;27.904;2024-02-26T09:58:38;15.03;;;6.87;;
11522;SDS011;70090;43.208;27.904;2024-02-26T10:01:08;15.47;;;6.60;;
11522;SDS011;70090;43.208;27.904;2024-02-26T10:03:38;15.87;;;7.43;;
11522;SDS011;70090;43.208;27.904;2024-02-26T10:06:09;17.53;;;7.30;;
11522;SDS011;70090;43.208;27.904;2024-02-26T10:08:37;15.93;;;6.53;;
11522;SDS011;70090;43.208;27.904;2024-02-26T10:11:04;14.23;;;6.93;;
11522;SDS011;70090;43.208;27.904;2024-02-26T10:13:33;14.27;;;6.47;;
11522;SDS011;70090;43.208;27.904;2024-02-26T10:16:01;12.70;;;6.43;;
11522;SDS011;70090;43.208;27.904;2024-02-26T10:21:17;13.90;;;7.20;;
11522;SDS011;70090;43.208;27.904;2024-02-26T10:23:44;15.20;;;8.50;;
11522;SDS011;70090;43.208;27.904;2024-02-26T10:26:12;22.37;;;11.67;;
11522;SDS011;70090;43.208;27.904;2024-02-26T10:28:41;15.60;;;8.47;;
11522;SDS011;70090;43.208;27.904;2024-02-26T10:31:08;14.87;;;8.10;;
11522;SDS011;70090;43.208;27.904;2024-02-26T10:33:36;17.93;;;8.57;;
11522;SDS011;70090;43.208;27.904;2024-02-26T10:36:05;22.50;;;11.67;;
11522;SDS011;70090;43.208;27.904;2024-02-26T10:38:35;34.27;;;18.40;;
11522;SDS011;70090;43.208;27.904;2024-02-26T10:41:03;15.67;;;7.37;;
11522;SDS011;70090;43.208;27.904;2024-02-26T10:43:30;14.10;;;6.93;;
11522;SDS011;70090;43.208;27.904;2024-02-26T10:45:57;16.27;;;6.97;;
11522;SDS011;70090;43.208;27.904;2024-02-26T10:48:25;15.90;;;6.40;;
11522;SDS011;70090;43.208;27.904;2024-02-26T10:50:52;12.03;;;5.67;;
11522;SDS011;70090;43.208;27.904;2024-02-26T10:53:21;10.00;;;5.43;;
11522;SDS011;70090;43.208;27.904;2024-02-26T10:55:53;10.97;;;5.83;;
11522;SDS011;70090;43.208;27.904;2024-02-26T10:58:21;11.63;;;5.60;;
11522;SDS011;70090;43.208;27.904;2024-02-26T11:00:50;15.93;;;6.47;;
11522;SDS011;70090;43.208;27.904;2024-02-26T11:03:18;9.33;;;5.63;;
11522;SDS011;70090;43.208;27.904;2024-02-26T11:05:46;12.70;;;6.07;;
11522;SDS011;70090;43.208;27.904;2024-02-26T11:08:14;13.37;;;6.03;;
11522;SDS011;70090;43.208;27.904;2024-02-26T11:10:45;13.20;;;6.30;;
11522;SDS011;70090;43.208;27.904;2024-02-26T11:13:17;11.33;;;5.80;;
11522;SDS011;70090;43.208;27.904;2024-02-26T11:15:45;13.37;;;5.77;;
11522;SDS011;70090;43.208;27.904;2024-02-26T11:18:14;12.07;;;5.70;;
11522;SDS011;70090;43.208;27.904;2024-02-26T11:20:42;12.77;;;6.23;;
11522;SDS011;70090;43.208;27.904;2024-02-26T11:23:09;11.53;;;6.07;;
11522;SDS011;70090;43.208;27.904;2024-02-26T11:25:36;13.23;;;6.30;;
11522;SDS011;70090;43.208;27.904;2024-02-26T11:28:06;12.63;;;6.17;;
11522;SDS011;70090;43.208;27.904;2024-02-26T11:30:37;10.70;;;5.63;;
11522;SDS011;70090;43.208;27.904;2024-02-26T11:33:08;13.17;;;6.40;;
11522;SDS011;70090;43.208;27.904;2024-02-26T11:35:37;10.27;;;5.93;;
11522;SDS011;70090;43.208;27.904;2024-02-26T11:38:05;11.07;;;5.83;;
11522;SDS011;70090;43.208;27.904;2024-02-26T11:40:32;12.03;;;6.23;;
11522;SDS011;70090;43.208;27.904;2024-02-26T11:43:04;11.53;;;6.40;;
11522;SDS011;70090;43.208;27.904;2024-02-26T11:45:51;14.67;;;6.30;;
11522;SDS011;70090;43.208;27.904;2024-02-26T11:48:22;15.10;;;6.07;;
11522;SDS011;70090;43.208;27.904;2024-02-26T11:50:51;14.23;;;6.10;;
11522;SDS011;70090;43.208;27.904;2024-02-26T11:53:25;12.40;;;6.33;;
11522;SDS011;70090;43.208;27.904;2024-02-26T11:58:39;12.47;;;5.47;;
11522;SDS011;70090;43.208;27.904;2024-02-26T12:04:21;13.10;;;5.73;;
11522;SDS011;70090;43.208;27.904;2024-02-26T12:06:51;12.40;;;5.57;;
11522;SDS011;70090;43.208;27.904;2024-02-26T12:09:31;8.03;;;5.20;;
11522;SDS011;70090;43.208;27.904;2024-02-26T12:12:02;12.03;;;5.50;;
11522;SDS011;70090;43.208;27.904;2024-02-26T12:14:32;10.20;;;5.50;;
11522;SDS011;70090;43.208;27.904;2024-02-26T12:17:00;11.40;;;5.70;;
11522;SDS011;70090;43.208;27.904;2024-02-26T12:19:29;11.20;;;5.30;;
11522;SDS011;70090;43.208;27.904;2024-02-26T12:21:58;12.80;;;6.37;;
11522;SDS011;70090;43.208;27.904;2024-02-26T12:24:25;11.73;;;5.70;;
11522;SDS011;70090;43.208;27.904;2024-02-26T12:26:52;13.13;;;6.10;;
11522;SDS011;70090;43.208;27.904;2024-02-26T12:29:20;11.90;;;5.97;;
11522;SDS011;70090;43.208;27.904;2024-02-26T12:31:47;13.30;;;5.47;;
11522;SDS011;70090;43.208;27.904;2024-02-26T12:34:14;9.97;;;5.20;;
11522;SDS011;70090;43.208;27.904;2024-02-26T12:36:43;17.53;;;6.73;;
11522;SDS011;70090;43.208;27.904;2024-02-26T12:39:11;11.43;;;6.27;;
11522;SDS011;70090;43.208;27.904;2024-02-26T12:41:38;13.33;;;6.40;;
11522;SDS011;70090;43.208;27.904;2024-02-26T12:44:05;12.53;;;6.70;;
11522;SDS011;70090;43.208;27.904;2024-02-26T12:46:34;12.50;;;6.33;;
11522;SDS011;70090;43.208;27.904;2024-02-26T12:49:01;16.07;;;6.90;;
11522;SDS011;70090;43.208;27.904;2024-02-26T12:51:28;14.80;;;6.30;;
11522;SDS011;70090;43.208;27.904;2024-02-26T12:53:57;11.60;;;5.87;;
11522;SDS011;70090;43.208;27.904;2024-02-26T12:56:25;11.07;;;6.37;;
11522;SDS011;70090;43.208;27.904;2024-02-26T12:58:53;11.20;;;5.97;;
11522;SDS011;70090;43.208;27.904;2024-02-26T13:01:22;13.00;;;5.90;;
11522;SDS011;70090;43.208;27.904;2024-02-26T13:03:50;10.67;;;5.63;;
11522;SDS011;70090;43.208;27.904;2024-02-26T13:06:19;14.50;;;5.87;;
11522;SDS011;70090;43.208;27.904;2024-02-26T13:08:47;13.10;;;6.27;;
11522;SDS011;70090;43.208;27.904;2024-02-26T13:11:15;17.37;;;6.67;;
11522;SDS011;70090;43.208;27.904;2024-02-26T13:13:47;13.70;;;6.10;;
11522;SDS011;70090;43.208;27.904;2024-02-26T13:16:14;12.00;;;6.60;;
11522;SDS011;70090;43.208;27.904;2024-02-26T13:18:42;15.60;;;6.87;;
11522;SDS011;70090;43.208;27.904;2024-02-26T13:21:10;15.27;;;6.50;;
11522;SDS011;70090;43.208;27.904;2024-02-26T13:23:38;11.87;;;6.03;;
11522;SDS011;70090;43.208;27.904;2024-02-26T13:26:06;13.10;;;6.20;;
11522;SDS011;70090;43.208;27.904;2024-02-26T13:28:35;13.43;;;6.10;;
11522;SDS011;70090;43.208;27.904;2024-02-26T13:31:02;11.67;;;6.50;;
11522;SDS011;70090;43.208;27.904;2024-02-26T13:33:33;11.23;;;6.20;;
11522;SDS011;70090;43.208;27.904;2024-02-26T13:36:00;12.27;;;6.60;;
11522;SDS011;70090;43.208;27.904;2024-02-26T13:38:27;11.27;;;6.50;;
11522;SDS011;70090;43.208;27.904;2024-02-26T13:40:53;13.23;;;7.50;;
11522;SDS011;70090;43.208;27.904;2024-02-26T13:43:21;11.10;;;6.90;;
11522;SDS011;70090;43.208;27.904;2024-02-26T13:45:49;14.23;;;6.77;;
11522;SDS011;70090;43.208;27.904;2024-02-26T13:48:16;15.17;;;7.30;;
11522;SDS011;70090;43.208;27.904;2024-02-26T13:50:43;13.77;;;7.60;;
11522;SDS011;70090;43.208;27.904;2024-02-26T13:53:11;16.20;;;6.80;;
11522;SDS011;70090;43.208;27.904;2024-02-26T13:55:39;11.40;;;6.93;;
11522;SDS011;70090;43.208;27.904;2024-02-26T13:58:07;15.23;;;8.97;;
11522;SDS011;70090;43.208;27.904;2024-02-26T14:00:38;18.90;;;10.63;;
11522;SDS011;70090;43.208;27.904;2024-02-26T14:03:08;15.03;;;7.90;;
11522;SDS011;70090;43.208;27.904;2024-02-26T14:05:35;14.40;;;7.77;;
11522;SDS011;70090;43.208;27.904;2024-02-26T14:08:02;14.13;;;7.50;;
11522;SDS011;70090;43.208;27.904;2024-02-26T14:10:29;12.87;;;7.17;;
11522;SDS011;70090;43.208;27.904;2024-02-26T14:12:57;13.80;;;7.50;;
11522;SDS011;70090;43.208;27.904;2024-02-26T14:15:24;17.37;;;7.80;;
11522;SDS011;70090;43.208;27.904;2024-02-26T14:17:51;13.47;;;6.87;;
11522;SDS011;70090;43.208;27.904;2024-02-26T14:20:21;17.57;;;7.80;;
11522;SDS011;70090;43.208;27.904;2024-02-26T14:22:49;12.73;;;7.37;;
11522;SDS011;70090;43.208;27.904;2024-02-26T14:25:17;13.17;;;7.80;;
11522;SDS011;70090;43.208;27.904;2024-02-26T14:27:44;15.10;;;7.33;;